Terminal Aerodrome Forecast
Issued by NWS

Home | Current Version | Previous Version | Text Only | Print | Product List | Glossary On
Versions: 1 2 3 4 5 6 7 8 9 10 11 12 13 14
998
FTAK31 PAJN 250003 AAA
TAFAPG
TAF AMD
PAPG 250003Z 2500/2524 09004KT 5SM -RASN BKN012 OVC020
      TEMPO 2500/2503 3SM -SHSN BKN006
     FM251000 25003KT 3SM -SN BR OVC010
     FM251500 VRB04KT 5SM -SHSNRA OVC025
     FM252000 VRB04KT P6SM -SHRASN OVC040
      AMD LTD TO CLD VIS AND WIND 2506/2515=

USA.gov is the U.S. government's official web portal to all federal, state and local government web resources and services.